sensor_id;sensor_type;location;lat;lon;timestamp;P1;durP1;ratioP1;P2;durP2;ratioP2
12681;SDS011;6405;59.208;18.216;2023-02-25T00:01:23;3.13;;;1.20;;
12681;SDS011;6405;59.208;18.216;2023-02-25T00:03:52;2.73;;;1.30;;
12681;SDS011;6405;59.208;18.216;2023-02-25T00:06:19;2.57;;;1.57;;
12681;SDS011;6405;59.208;18.216;2023-02-25T00:08:46;4.23;;;2.00;;
12681;SDS011;6405;59.208;18.216;2023-02-25T00:11:13;3.53;;;1.33;;
12681;SDS011;6405;59.208;18.216;2023-02-25T00:13:40;3.67;;;1.70;;
12681;SDS011;6405;59.208;18.216;2023-02-25T00:16:07;3.17;;;1.17;;
12681;SDS011;6405;59.208;18.216;2023-02-25T00:18:33;3.50;;;1.20;;
12681;SDS011;6405;59.208;18.216;2023-02-25T00:21:02;2.27;;;1.67;;
12681;SDS011;6405;59.208;18.216;2023-02-25T00:23:29;4.20;;;1.37;;
12681;SDS011;6405;59.208;18.216;2023-02-25T00:26:02;2.57;;;1.00;;
12681;SDS011;6405;59.208;18.216;2023-02-25T00:28:32;5.70;;;1.97;;
12681;SDS011;6405;59.208;18.216;2023-02-25T00:30:58;3.17;;;1.47;;
12681;SDS011;6405;59.208;18.216;2023-02-25T00:33:24;2.90;;;1.30;;
12681;SDS011;6405;59.208;18.216;2023-02-25T00:35:49;3.23;;;1.40;;
12681;SDS011;6405;59.208;18.216;2023-02-25T00:38:15;3.13;;;1.27;;
12681;SDS011;6405;59.208;18.216;2023-02-25T00:40:41;3.63;;;1.30;;
12681;SDS011;6405;59.208;18.216;2023-02-25T00:43:07;4.73;;;1.87;;
12681;SDS011;6405;59.208;18.216;2023-02-25T00:45:33;4.67;;;1.70;;
12681;SDS011;6405;59.208;18.216;2023-02-25T00:47:59;3.73;;;1.50;;
12681;SDS011;6405;59.208;18.216;2023-02-25T00:50:24;3.47;;;1.40;;
12681;SDS011;6405;59.208;18.216;2023-02-25T00:52:50;3.13;;;1.30;;
12681;SDS011;6405;59.208;18.216;2023-02-25T00:55:16;1.80;;;1.00;;
12681;SDS011;6405;59.208;18.216;2023-02-25T00:57:41;2.33;;;1.20;;
12681;SDS011;6405;59.208;18.216;2023-02-25T01:00:08;2.17;;;1.07;;
12681;SDS011;6405;59.208;18.216;2023-02-25T01:02:40;2.70;;;0.87;;
12681;SDS011;6405;59.208;18.216;2023-02-25T01:05:10;6.57;;;1.70;;
12681;SDS011;6405;59.208;18.216;2023-02-25T01:07:39;2.03;;;1.30;;
12681;SDS011;6405;59.208;18.216;2023-02-25T01:10:05;2.43;;;1.37;;
12681;SDS011;6405;59.208;18.216;2023-02-25T01:12:31;2.43;;;1.50;;
12681;SDS011;6405;59.208;18.216;2023-02-25T01:14:57;4.40;;;1.53;;
12681;SDS011;6405;59.208;18.216;2023-02-25T01:17:23;2.43;;;1.50;;
12681;SDS011;6405;59.208;18.216;2023-02-25T01:19:49;4.47;;;1.60;;
12681;SDS011;6405;59.208;18.216;2023-02-25T01:22:14;4.00;;;1.40;;
12681;SDS011;6405;59.208;18.216;2023-02-25T01:24:40;1.87;;;1.40;;
12681;SDS011;6405;59.208;18.216;2023-02-25T01:27:05;4.37;;;1.40;;
12681;SDS011;6405;59.208;18.216;2023-02-25T01:29:34;4.60;;;1.57;;
12681;SDS011;6405;59.208;18.216;2023-02-25T01:32:05;1.97;;;1.20;;
12681;SDS011;6405;59.208;18.216;2023-02-25T01:34:33;3.23;;;1.47;;
12681;SDS011;6405;59.208;18.216;2023-02-25T01:36:59;3.77;;;1.50;;
12681;SDS011;6405;59.208;18.216;2023-02-25T01:39:25;2.63;;;1.40;;
12681;SDS011;6405;59.208;18.216;2023-02-25T01:41:51;3.50;;;1.63;;
12681;SDS011;6405;59.208;18.216;2023-02-25T01:44:20;4.10;;;1.60;;
12681;SDS011;6405;59.208;18.216;2023-02-25T01:46:48;2.33;;;1.33;;
12681;SDS011;6405;59.208;18.216;2023-02-25T01:51:48;3.67;;;1.37;;
12681;SDS011;6405;59.208;18.216;2023-02-25T01:54:18;6.70;;;1.93;;
12681;SDS011;6405;59.208;18.216;2023-02-25T01:56:45;3.40;;;1.50;;
12681;SDS011;6405;59.208;18.216;2023-02-25T01:59:15;1.93;;;1.27;;
12681;SDS011;6405;59.208;18.216;2023-02-25T02:01:42;2.67;;;1.30;;
12681;SDS011;6405;59.208;18.216;2023-02-25T02:04:08;3.83;;;1.70;;
12681;SDS011;6405;59.208;18.216;2023-02-25T02:06:37;3.93;;;1.80;;
12681;SDS011;6405;59.208;18.216;2023-02-25T02:09:06;2.77;;;1.67;;
12681;SDS011;6405;59.208;18.216;2023-02-25T02:11:34;3.40;;;1.73;;
12681;SDS011;6405;59.208;18.216;2023-02-25T02:14:00;3.47;;;1.83;;
12681;SDS011;6405;59.208;18.216;2023-02-25T02:19:23;4.60;;;1.57;;
12681;SDS011;6405;59.208;18.216;2023-02-25T02:30:13;5.40;;;2.67;;
12681;SDS011;6405;59.208;18.216;2023-02-25T02:40:52;6.93;;;2.83;;
12681;SDS011;6405;59.208;18.216;2023-02-25T02:43:33;5.57;;;2.67;;
12681;SDS011;6405;59.208;18.216;2023-02-25T02:48:52;3.93;;;2.17;;
12681;SDS011;6405;59.208;18.216;2023-02-25T02:51:47;4.43;;;2.50;;
12681;SDS011;6405;59.208;18.216;2023-02-25T02:54:18;6.00;;;2.13;;
12681;SDS011;6405;59.208;18.216;2023-02-25T02:56:46;4.83;;;2.47;;
12681;SDS011;6405;59.208;18.216;2023-02-25T02:59:16;5.43;;;2.30;;
12681;SDS011;6405;59.208;18.216;2023-02-25T03:01:51;6.00;;;2.63;;
12681;SDS011;6405;59.208;18.216;2023-02-25T03:04:24;5.40;;;2.43;;
12681;SDS011;6405;59.208;18.216;2023-02-25T03:06:58;6.57;;;2.13;;
12681;SDS011;6405;59.208;18.216;2023-02-25T03:09:28;3.97;;;2.03;;
12681;SDS011;6405;59.208;18.216;2023-02-25T03:12:02;6.33;;;2.53;;
12681;SDS011;6405;59.208;18.216;2023-02-25T03:14:28;4.07;;;1.70;;
12681;SDS011;6405;59.208;18.216;2023-02-25T03:19:21;5.20;;;1.70;;
12681;SDS011;6405;59.208;18.216;2023-02-25T03:21:56;4.73;;;2.10;;
12681;SDS011;6405;59.208;18.216;2023-02-25T03:24:28;5.13;;;1.80;;
12681;SDS011;6405;59.208;18.216;2023-02-25T03:26:59;4.77;;;2.00;;
12681;SDS011;6405;59.208;18.216;2023-02-25T03:29:26;4.73;;;1.77;;
12681;SDS011;6405;59.208;18.216;2023-02-25T03:34:30;4.90;;;1.97;;
12681;SDS011;6405;59.208;18.216;2023-02-25T03:37:01;6.13;;;2.43;;
12681;SDS011;6405;59.208;18.216;2023-02-25T03:39:32;7.30;;;2.17;;
12681;SDS011;6405;59.208;18.216;2023-02-25T03:42:04;4.70;;;1.77;;
12681;SDS011;6405;59.208;18.216;2023-02-25T03:44:35;3.20;;;1.77;;
12681;SDS011;6405;59.208;18.216;2023-02-25T03:47:08;5.83;;;2.17;;
12681;SDS011;6405;59.208;18.216;2023-02-25T03:49:37;4.13;;;2.00;;
12681;SDS011;6405;59.208;18.216;2023-02-25T03:52:10;3.87;;;2.13;;
12681;SDS011;6405;59.208;18.216;2023-02-25T03:54:40;5.33;;;1.97;;
12681;SDS011;6405;59.208;18.216;2023-02-25T03:57:05;5.80;;;1.93;;
12681;SDS011;6405;59.208;18.216;2023-02-25T03:59:31;5.17;;;2.00;;
12681;SDS011;6405;59.208;18.216;2023-02-25T04:01:57;3.63;;;1.50;;
12681;SDS011;6405;59.208;18.216;2023-02-25T04:04:24;2.30;;;1.60;;
12681;SDS011;6405;59.208;18.216;2023-02-25T04:06:50;3.30;;;1.93;;
12681;SDS011;6405;59.208;18.216;2023-02-25T04:09:16;3.70;;;1.70;;
12681;SDS011;6405;59.208;18.216;2023-02-25T04:11:42;3.33;;;1.50;;
12681;SDS011;6405;59.208;18.216;2023-02-25T04:14:08;2.73;;;1.27;;
12681;SDS011;6405;59.208;18.216;2023-02-25T04:16:33;2.43;;;1.30;;
12681;SDS011;6405;59.208;18.216;2023-02-25T04:18:59;2.40;;;0.80;;
12681;SDS011;6405;59.208;18.216;2023-02-25T04:21:30;3.60;;;1.10;;
12681;SDS011;6405;59.208;18.216;2023-02-25T04:23:57;2.77;;;0.70;;
12681;SDS011;6405;59.208;18.216;2023-02-25T04:26:23;2.10;;;0.80;;
12681;SDS011;6405;59.208;18.216;2023-02-25T04:28:49;0.93;;;0.53;;
12681;SDS011;6405;59.208;18.216;2023-02-25T04:31:15;3.37;;;0.83;;
12681;SDS011;6405;59.208;18.216;2023-02-25T04:33:41;0.90;;;0.50;;
12681;SDS011;6405;59.208;18.216;2023-02-25T04:36:20;0.87;;;0.47;;
12681;SDS011;6405;59.208;18.216;2023-02-25T04:38:48;4.80;;;1.03;;
12681;SDS011;6405;59.208;18.216;2023-02-25T04:41:14;1.90;;;0.40;;
12681;SDS011;6405;59.208;18.216;2023-02-25T04:43:40;2.47;;;0.63;;
12681;SDS011;6405;59.208;18.216;2023-02-25T04:46:05;3.50;;;0.73;;
12681;SDS011;6405;59.208;18.216;2023-02-25T04:48:31;0.77;;;0.43;;
12681;SDS011;6405;59.208;18.216;2023-02-25T04:51:00;0.40;;;0.27;;
12681;SDS011;6405;59.208;18.216;2023-02-25T04:53:26;0.40;;;0.30;;
12681;SDS011;6405;59.208;18.216;2023-02-25T04:55:52;0.47;;;0.40;;
12681;SDS011;6405;59.208;18.216;2023-02-25T04:58:17;1.13;;;0.30;;
12681;SDS011;6405;59.208;18.216;2023-02-25T05:00:43;2.53;;;0.40;;
12681;SDS011;6405;59.208;18.216;2023-02-25T05:03:12;1.00;;;0.30;;
12681;SDS011;6405;59.208;18.216;2023-02-25T05:05:39;2.90;;;0.70;;
12681;SDS011;6405;59.208;18.216;2023-02-25T05:08:05;2.00;;;0.50;;
12681;SDS011;6405;59.208;18.216;2023-02-25T05:10:31;0.47;;;0.47;;
12681;SDS011;6405;59.208;18.216;2023-02-25T05:12:56;1.10;;;0.50;;
12681;SDS011;6405;59.208;18.216;2023-02-25T05:15:22;1.50;;;0.60;;
12681;SDS011;6405;59.208;18.216;2023-02-25T05:17:48;0.60;;;0.40;;
12681;SDS011;6405;59.208;18.216;2023-02-25T05:20:13;4.30;;;0.50;;
12681;SDS011;6405;59.208;18.216;2023-02-25T05:22:40;4.43;;;0.83;;
12681;SDS011;6405;59.208;18.216;2023-02-25T05:25:06;0.60;;;0.30;;
12681;SDS011;6405;59.208;18.216;2023-02-25T05:27:33;2.00;;;0.40;;
12681;SDS011;6405;59.208;18.216;2023-02-25T05:29:59;1.00;;;0.63;;
12681;SDS011;6405;59.208;18.216;2023-02-25T05:32:25;0.93;;;0.50;;
12681;SDS011;6405;59.208;18.216;2023-02-25T05:34:51;1.60;;;0.30;;
12681;SDS011;6405;59.208;18.216;2023-02-25T05:37:16;1.43;;;0.30;;
12681;SDS011;6405;59.208;18.216;2023-02-25T05:39:42;2.60;;;0.63;;
12681;SDS011;6405;59.208;18.216;2023-02-25T05:42:08;2.80;;;0.47;;
12681;SDS011;6405;59.208;18.216;2023-02-25T05:44:33;3.13;;;0.60;;
12681;SDS011;6405;59.208;18.216;2023-02-25T05:46:59;1.13;;;0.53;;
12681;SDS011;6405;59.208;18.216;2023-02-25T05:49:25;1.73;;;0.50;;
12681;SDS011;6405;59.208;18.216;2023-02-25T05:51:50;0.63;;;0.40;;
12681;SDS011;6405;59.208;18.216;2023-02-25T05:54:16;1.33;;;0.60;;
12681;SDS011;6405;59.208;18.216;2023-02-25T05:56:42;0.90;;;0.50;;
12681;SDS011;6405;59.208;18.216;2023-02-25T05:59:09;1.00;;;0.30;;
12681;SDS011;6405;59.208;18.216;2023-02-25T06:01:35;0.60;;;0.47;;
12681;SDS011;6405;59.208;18.216;2023-02-25T06:04:01;1.43;;;0.57;;
12681;SDS011;6405;59.208;18.216;2023-02-25T06:06:27;2.80;;;0.50;;
12681;SDS011;6405;59.208;18.216;2023-02-25T06:08:55;4.37;;;0.43;;
12681;SDS011;6405;59.208;18.216;2023-02-25T06:11:23;1.43;;;0.50;;
12681;SDS011;6405;59.208;18.216;2023-02-25T06:13:51;0.87;;;0.40;;
12681;SDS011;6405;59.208;18.216;2023-02-25T06:16:18;0.73;;;0.40;;
12681;SDS011;6405;59.208;18.216;2023-02-25T06:18:44;1.33;;;0.70;;
12681;SDS011;6405;59.208;18.216;2023-02-25T06:21:11;3.07;;;0.60;;
12681;SDS011;6405;59.208;18.216;2023-02-25T06:23:38;1.00;;;0.37;;
12681;SDS011;6405;59.208;18.216;2023-02-25T06:26:07;2.23;;;0.40;;
12681;SDS011;6405;59.208;18.216;2023-02-25T06:28:35;1.77;;;0.30;;
12681;SDS011;6405;59.208;18.216;2023-02-25T06:31:01;1.90;;;0.47;;
12681;SDS011;6405;59.208;18.216;2023-02-25T06:33:30;1.20;;;0.60;;
12681;SDS011;6405;59.208;18.216;2023-02-25T06:35:56;2.23;;;0.50;;
12681;SDS011;6405;59.208;18.216;2023-02-25T06:38:22;0.50;;;0.30;;
12681;SDS011;6405;59.208;18.216;2023-02-25T06:40:48;0.77;;;0.57;;
12681;SDS011;6405;59.208;18.216;2023-02-25T06:43:15;0.50;;;0.50;;
12681;SDS011;6405;59.208;18.216;2023-02-25T06:45:41;2.10;;;0.60;;
12681;SDS011;6405;59.208;18.216;2023-02-25T06:48:07;1.50;;;0.60;;
12681;SDS011;6405;59.208;18.216;2023-02-25T06:50:33;2.33;;;0.60;;
12681;SDS011;6405;59.208;18.216;2023-02-25T06:52:58;3.33;;;0.70;;
12681;SDS011;6405;59.208;18.216;2023-02-25T06:55:24;1.63;;;0.60;;
12681;SDS011;6405;59.208;18.216;2023-02-25T06:57:50;2.80;;;0.57;;
12681;SDS011;6405;59.208;18.216;2023-02-25T07:00:18;2.33;;;0.63;;
12681;SDS011;6405;59.208;18.216;2023-02-25T07:02:44;1.33;;;0.70;;
12681;SDS011;6405;59.208;18.216;2023-02-25T07:05:10;4.07;;;0.63;;
12681;SDS011;6405;59.208;18.216;2023-02-25T07:07:36;1.13;;;0.57;;
12681;SDS011;6405;59.208;18.216;2023-02-25T07:10:01;1.30;;;0.47;;
12681;SDS011;6405;59.208;18.216;2023-02-25T07:12:27;1.53;;;0.67;;
12681;SDS011;6405;59.208;18.216;2023-02-25T07:14:55;0.50;;;0.40;;
12681;SDS011;6405;59.208;18.216;2023-02-25T07:17:22;4.27;;;1.20;;
12681;SDS011;6405;59.208;18.216;2023-02-25T07:19:47;1.33;;;0.67;;
12681;SDS011;6405;59.208;18.216;2023-02-25T07:22:14;0.80;;;0.50;;
12681;SDS011;6405;59.208;18.216;2023-02-25T07:24:41;2.63;;;0.60;;
12681;SDS011;6405;59.208;18.216;2023-02-25T07:27:06;1.33;;;0.60;;
12681;SDS011;6405;59.208;18.216;2023-02-25T07:29:32;0.83;;;0.60;;
12681;SDS011;6405;59.208;18.216;2023-02-25T07:31:58;0.77;;;0.50;;
12681;SDS011;6405;59.208;18.216;2023-02-25T07:34:24;1.40;;;0.70;;
12681;SDS011;6405;59.208;18.216;2023-02-25T07:36:50;0.33;;;0.33;;
12681;SDS011;6405;59.208;18.216;2023-02-25T07:39:16;1.43;;;0.60;;
12681;SDS011;6405;59.208;18.216;2023-02-25T07:41:41;2.07;;;0.50;;
12681;SDS011;6405;59.208;18.216;2023-02-25T07:44:07;1.30;;;0.73;;
12681;SDS011;6405;59.208;18.216;2023-02-25T07:46:33;1.57;;;0.60;;
12681;SDS011;6405;59.208;18.216;2023-02-25T07:48:59;1.67;;;0.70;;
12681;SDS011;6405;59.208;18.216;2023-02-25T07:51:25;2.40;;;0.50;;
12681;SDS011;6405;59.208;18.216;2023-02-25T07:53:52;2.47;;;0.67;;
12681;SDS011;6405;59.208;18.216;2023-02-25T07:56:20;1.60;;;0.70;;
12681;SDS011;6405;59.208;18.216;2023-02-25T07:58:46;4.77;;;0.70;;
12681;SDS011;6405;59.208;18.216;2023-02-25T08:01:22;3.50;;;0.90;;
12681;SDS011;6405;59.208;18.216;2023-02-25T08:03:50;3.30;;;0.50;;
12681;SDS011;6405;59.208;18.216;2023-02-25T08:06:18;1.00;;;0.70;;
12681;SDS011;6405;59.208;18.216;2023-02-25T08:08:45;2.27;;;0.90;;
12681;SDS011;6405;59.208;18.216;2023-02-25T08:11:12;1.83;;;0.60;;
12681;SDS011;6405;59.208;18.216;2023-02-25T08:13:39;1.67;;;1.00;;
12681;SDS011;6405;59.208;18.216;2023-02-25T08:16:09;2.73;;;0.73;;
12681;SDS011;6405;59.208;18.216;2023-02-25T08:18:36;1.57;;;1.00;;
12681;SDS011;6405;59.208;18.216;2023-02-25T08:21:03;3.90;;;0.80;;
12681;SDS011;6405;59.208;18.216;2023-02-25T08:23:29;4.10;;;2.10;;
12681;SDS011;6405;59.208;18.216;2023-02-25T08:25:56;1.80;;;0.53;;
12681;SDS011;6405;59.208;18.216;2023-02-25T08:28:23;2.70;;;0.87;;
12681;SDS011;6405;59.208;18.216;2023-02-25T08:30:50;2.33;;;1.00;;
12681;SDS011;6405;59.208;18.216;2023-02-25T08:33:18;3.10;;;0.53;;
12681;SDS011;6405;59.208;18.216;2023-02-25T08:35:44;3.20;;;0.57;;
12681;SDS011;6405;59.208;18.216;2023-02-25T08:38:10;2.17;;;1.33;;
12681;SDS011;6405;59.208;18.216;2023-02-25T08:40:37;1.67;;;0.60;;
12681;SDS011;6405;59.208;18.216;2023-02-25T08:43:04;1.87;;;0.60;;
12681;SDS011;6405;59.208;18.216;2023-02-25T08:45:30;1.90;;;0.40;;
12681;SDS011;6405;59.208;18.216;2023-02-25T08:47:55;5.10;;;1.40;;
12681;SDS011;6405;59.208;18.216;2023-02-25T08:50:21;1.40;;;1.03;;
12681;SDS011;6405;59.208;18.216;2023-02-25T08:52:48;2.80;;;0.70;;
12681;SDS011;6405;59.208;18.216;2023-02-25T08:55:14;1.07;;;0.40;;
12681;SDS011;6405;59.208;18.216;2023-02-25T08:57:41;1.63;;;0.60;;
12681;SDS011;6405;59.208;18.216;2023-02-25T09:00:07;2.77;;;0.50;;
12681;SDS011;6405;59.208;18.216;2023-02-25T09:02:34;0.63;;;0.63;;
12681;SDS011;6405;59.208;18.216;2023-02-25T09:05:00;1.17;;;0.70;;
12681;SDS011;6405;59.208;18.216;2023-02-25T09:07:26;2.63;;;0.87;;
12681;SDS011;6405;59.208;18.216;2023-02-25T09:09:51;1.67;;;0.50;;
12681;SDS011;6405;59.208;18.216;2023-02-25T09:12:17;1.43;;;0.50;;
12681;SDS011;6405;59.208;18.216;2023-02-25T09:14:43;1.67;;;0.67;;
12681;SDS011;6405;59.208;18.216;2023-02-25T09:17:08;1.67;;;0.47;;
12681;SDS011;6405;59.208;18.216;2023-02-25T09:19:34;2.13;;;0.50;;
12681;SDS011;6405;59.208;18.216;2023-02-25T09:22:06;1.80;;;0.53;;
12681;SDS011;6405;59.208;18.216;2023-02-25T09:24:33;0.67;;;0.60;;
12681;SDS011;6405;59.208;18.216;2023-02-25T09:27:00;1.90;;;1.30;;
12681;SDS011;6405;59.208;18.216;2023-02-25T09:29:35;2.00;;;0.50;;
12681;SDS011;6405;59.208;18.216;2023-02-25T09:32:03;1.73;;;0.43;;
12681;SDS011;6405;59.208;18.216;2023-02-25T09:34:29;2.60;;;0.60;;
12681;SDS011;6405;59.208;18.216;2023-02-25T09:36:57;2.23;;;0.90;;
12681;SDS011;6405;59.208;18.216;2023-02-25T09:39:24;1.90;;;0.50;;
12681;SDS011;6405;59.208;18.216;2023-02-25T09:41:54;2.80;;;0.67;;
12681;SDS011;6405;59.208;18.216;2023-02-25T09:44:35;3.43;;;0.60;;
12681;SDS011;6405;59.208;18.216;2023-02-25T09:47:09;2.73;;;0.70;;
12681;SDS011;6405;59.208;18.216;2023-02-25T09:49:57;2.37;;;0.63;;
12681;SDS011;6405;59.208;18.216;2023-02-25T10:00:37;3.17;;;0.97;;
12681;SDS011;6405;59.208;18.216;2023-02-25T10:03:13;2.57;;;0.60;;
12681;SDS011;6405;59.208;18.216;2023-02-25T10:05:45;3.40;;;1.37;;
12681;SDS011;6405;59.208;18.216;2023-02-25T10:11:15;5.07;;;0.73;;
12681;SDS011;6405;59.208;18.216;2023-02-25T10:13:55;1.80;;;1.20;;
12681;SDS011;6405;59.208;18.216;2023-02-25T10:24:56;2.17;;;0.50;;
12681;SDS011;6405;59.208;18.216;2023-02-25T10:27:29;2.03;;;0.70;;
12681;SDS011;6405;59.208;18.216;2023-02-25T10:30:04;4.13;;;0.93;;
12681;SDS011;6405;59.208;18.216;2023-02-25T10:32:43;2.67;;;0.70;;
12681;SDS011;6405;59.208;18.216;2023-02-25T10:37:49;1.47;;;0.50;;
12681;SDS011;6405;59.208;18.216;2023-02-25T10:40:16;3.57;;;0.83;;
12681;SDS011;6405;59.208;18.216;2023-02-25T10:42:45;2.30;;;0.80;;
12681;SDS011;6405;59.208;18.216;2023-02-25T10:45:16;2.63;;;0.70;;
12681;SDS011;6405;59.208;18.216;2023-02-25T10:47:47;2.63;;;0.83;;
12681;SDS011;6405;59.208;18.216;2023-02-25T10:50:20;2.87;;;1.07;;
12681;SDS011;6405;59.208;18.216;2023-02-25T10:53:02;2.77;;;0.70;;
12681;SDS011;6405;59.208;18.216;2023-02-25T10:55:34;2.17;;;0.60;;
12681;SDS011;6405;59.208;18.216;2023-02-25T11:01:00;2.83;;;0.90;;
12681;SDS011;6405;59.208;18.216;2023-02-25T11:03:54;2.30;;;0.70;;
12681;SDS011;6405;59.208;18.216;2023-02-25T11:08:49;4.23;;;0.63;;
12681;SDS011;6405;59.208;18.216;2023-02-25T11:11:20;4.27;;;1.17;;
12681;SDS011;6405;59.208;18.216;2023-02-25T11:13:55;1.13;;;0.50;;
12681;SDS011;6405;59.208;18.216;2023-02-25T11:16:43;2.60;;;0.90;;
12681;SDS011;6405;59.208;18.216;2023-02-25T11:19:24;3.27;;;1.10;;
12681;SDS011;6405;59.208;18.216;2023-02-25T11:21:52;1.90;;;0.73;;
12681;SDS011;6405;59.208;18.216;2023-02-25T11:24:21;2.33;;;0.70;;
12681;SDS011;6405;59.208;18.216;2023-02-25T11:26:55;2.10;;;0.87;;
12681;SDS011;6405;59.208;18.216;2023-02-25T11:29:32;1.73;;;0.70;;
12681;SDS011;6405;59.208;18.216;2023-02-25T11:32:12;2.60;;;0.60;;
12681;SDS011;6405;59.208;18.216;2023-02-25T11:34:45;3.43;;;0.87;;
12681;SDS011;6405;59.208;18.216;2023-02-25T11:39:59;4.37;;;0.87;;
12681;SDS011;6405;59.208;18.216;2023-02-25T11:42:25;3.37;;;0.73;;
12681;SDS011;6405;59.208;18.216;2023-02-25T11:45:01;2.93;;;0.80;;
12681;SDS011;6405;59.208;18.216;2023-02-25T11:47:28;1.87;;;0.70;;
12681;SDS011;6405;59.208;18.216;2023-02-25T12:04:32;3.30;;;0.80;;
12681;SDS011;6405;59.208;18.216;2023-02-25T12:18:49;3.63;;;1.00;;
12681;SDS011;6405;59.208;18.216;2023-02-25T12:29:33;3.07;;;1.10;;
12681;SDS011;6405;59.208;18.216;2023-02-25T12:38:18;3.47;;;1.37;;
12681;SDS011;6405;59.208;18.216;2023-02-25T12:41:06;2.53;;;0.90;;
12681;SDS011;6405;59.208;18.216;2023-02-25T12:43:49;2.00;;;0.63;;
12681;SDS011;6405;59.208;18.216;2023-02-25T12:49:25;1.83;;;0.67;;
12681;SDS011;6405;59.208;18.216;2023-02-25T12:57:38;2.70;;;0.70;;
12681;SDS011;6405;59.208;18.216;2023-02-25T13:01:02;4.23;;;1.20;;
12681;SDS011;6405;59.208;18.216;2023-02-25T13:12:15;6.33;;;1.53;;
12681;SDS011;6405;59.208;18.216;2023-02-25T13:32:24;2.90;;;1.03;;
12681;SDS011;6405;59.208;18.216;2023-02-25T13:35:10;3.57;;;0.90;;
12681;SDS011;6405;59.208;18.216;2023-02-25T13:43:32;4.67;;;1.07;;
12681;SDS011;6405;59.208;18.216;2023-02-25T13:57:24;3.33;;;1.20;;
12681;SDS011;6405;59.208;18.216;2023-02-25T14:06:01;4.97;;;1.40;;
12681;SDS011;6405;59.208;18.216;2023-02-25T14:11:15;3.77;;;0.90;;
12681;SDS011;6405;59.208;18.216;2023-02-25T14:16:34;3.17;;;0.80;;
12681;SDS011;6405;59.208;18.216;2023-02-25T14:22:14;6.33;;;1.33;;
12681;SDS011;6405;59.208;18.216;2023-02-25T14:47:29;6.77;;;1.50;;
12681;SDS011;6405;59.208;18.216;2023-02-25T14:50:05;2.87;;;1.30;;
12681;SDS011;6405;59.208;18.216;2023-02-25T14:52:45;6.17;;;0.90;;
12681;SDS011;6405;59.208;18.216;2023-02-25T14:58:11;5.23;;;1.30;;
12681;SDS011;6405;59.208;18.216;2023-02-25T15:00:52;2.97;;;1.00;;
12681;SDS011;6405;59.208;18.216;2023-02-25T15:03:56;4.07;;;1.43;;
12681;SDS011;6405;59.208;18.216;2023-02-25T15:12:38;5.30;;;1.40;;
12681;SDS011;6405;59.208;18.216;2023-02-25T15:18:26;5.13;;;1.40;;
12681;SDS011;6405;59.208;18.216;2023-02-25T15:23:58;4.73;;;1.20;;
12681;SDS011;6405;59.208;18.216;2023-02-25T15:26:44;3.13;;;1.00;;
12681;SDS011;6405;59.208;18.216;2023-02-25T15:29:18;3.50;;;0.90;;
12681;SDS011;6405;59.208;18.216;2023-02-25T15:34:58;2.67;;;0.73;;
12681;SDS011;6405;59.208;18.216;2023-02-25T15:37:30;3.60;;;0.87;;
12681;SDS011;6405;59.208;18.216;2023-02-25T15:39:59;4.80;;;1.03;;
12681;SDS011;6405;59.208;18.216;2023-02-25T15:56:45;3.80;;;1.20;;
12681;SDS011;6405;59.208;18.216;2023-02-25T16:01:20;3.47;;;1.20;;
12681;SDS011;6405;59.208;18.216;2023-02-25T16:03:54;5.93;;;0.90;;
12681;SDS011;6405;59.208;18.216;2023-02-25T16:09:06;4.30;;;0.97;;
12681;SDS011;6405;59.208;18.216;2023-02-25T16:11:41;4.70;;;1.03;;
12681;SDS011;6405;59.208;18.216;2023-02-25T16:16:50;3.20;;;0.80;;
12681;SDS011;6405;59.208;18.216;2023-02-25T16:19:35;2.80;;;0.80;;
12681;SDS011;6405;59.208;18.216;2023-02-25T16:24:37;3.63;;;1.20;;
12681;SDS011;6405;59.208;18.216;2023-02-25T16:27:19;2.20;;;0.90;;
12681;SDS011;6405;59.208;18.216;2023-02-25T16:32:37;2.33;;;0.90;;
12681;SDS011;6405;59.208;18.216;2023-02-25T16:35:26;3.67;;;1.13;;
12681;SDS011;6405;59.208;18.216;2023-02-25T16:40:30;2.80;;;0.97;;
12681;SDS011;6405;59.208;18.216;2023-02-25T16:43:09;1.20;;;0.63;;
12681;SDS011;6405;59.208;18.216;2023-02-25T16:45:42;2.80;;;0.60;;
12681;SDS011;6405;59.208;18.216;2023-02-25T16:48:17;3.87;;;1.07;;
12681;SDS011;6405;59.208;18.216;2023-02-25T16:50:50;3.77;;;1.00;;
12681;SDS011;6405;59.208;18.216;2023-02-25T16:53:19;3.07;;;0.60;;
12681;SDS011;6405;59.208;18.216;2023-02-25T16:55:48;1.70;;;0.97;;
12681;SDS011;6405;59.208;18.216;2023-02-25T17:00:59;2.00;;;0.53;;
12681;SDS011;6405;59.208;18.216;2023-02-25T17:03:31;2.47;;;0.63;;
12681;SDS011;6405;59.208;18.216;2023-02-25T17:06:15;1.57;;;0.80;;
12681;SDS011;6405;59.208;18.216;2023-02-25T17:08:44;2.17;;;1.10;;
12681;SDS011;6405;59.208;18.216;2023-02-25T17:11:10;4.43;;;0.80;;
12681;SDS011;6405;59.208;18.216;2023-02-25T17:13:41;1.33;;;0.67;;
12681;SDS011;6405;59.208;18.216;2023-02-25T17:16:26;5.83;;;0.90;;
12681;SDS011;6405;59.208;18.216;2023-02-25T17:19:00;5.80;;;1.27;;
12681;SDS011;6405;59.208;18.216;2023-02-25T17:21:33;3.90;;;1.10;;
12681;SDS011;6405;59.208;18.216;2023-02-25T17:24:02;2.73;;;0.80;;
12681;SDS011;6405;59.208;18.216;2023-02-25T17:26:38;3.63;;;1.10;;
12681;SDS011;6405;59.208;18.216;2023-02-25T17:29:08;4.70;;;1.10;;
12681;SDS011;6405;59.208;18.216;2023-02-25T17:31:40;1.80;;;0.60;;
12681;SDS011;6405;59.208;18.216;2023-02-25T17:34:19;2.23;;;1.03;;
12681;SDS011;6405;59.208;18.216;2023-02-25T17:36:52;3.37;;;1.23;;
12681;SDS011;6405;59.208;18.216;2023-02-25T17:39:19;6.17;;;1.10;;
12681;SDS011;6405;59.208;18.216;2023-02-25T17:41:46;3.73;;;1.33;;
12681;SDS011;6405;59.208;18.216;2023-02-25T17:47:17;7.17;;;1.33;;
12681;SDS011;6405;59.208;18.216;2023-02-25T17:49:45;2.77;;;0.87;;
12681;SDS011;6405;59.208;18.216;2023-02-25T17:52:25;1.00;;;0.63;;
12681;SDS011;6405;59.208;18.216;2023-02-25T17:55:01;2.73;;;0.53;;
12681;SDS011;6405;59.208;18.216;2023-02-25T17:57:32;3.73;;;1.03;;
12681;SDS011;6405;59.208;18.216;2023-02-25T17:59:59;0.50;;;0.50;;
12681;SDS011;6405;59.208;18.216;2023-02-25T18:02:43;3.60;;;0.90;;
12681;SDS011;6405;59.208;18.216;2023-02-25T18:07:44;5.57;;;1.30;;
12681;SDS011;6405;59.208;18.216;2023-02-25T18:12:50;1.73;;;0.87;;
12681;SDS011;6405;59.208;18.216;2023-02-25T18:15:21;2.90;;;1.17;;
12681;SDS011;6405;59.208;18.216;2023-02-25T18:18:04;5.33;;;1.23;;
12681;SDS011;6405;59.208;18.216;2023-02-25T18:20:34;3.00;;;1.00;;
12681;SDS011;6405;59.208;18.216;2023-02-25T18:23:06;5.00;;;1.50;;
12681;SDS011;6405;59.208;18.216;2023-02-25T18:25:40;2.77;;;1.13;;
12681;SDS011;6405;59.208;18.216;2023-02-25T18:28:19;3.53;;;0.77;;
12681;SDS011;6405;59.208;18.216;2023-02-25T18:30:46;1.70;;;1.10;;
12681;SDS011;6405;59.208;18.216;2023-02-25T18:33:13;2.93;;;1.00;;
12681;SDS011;6405;59.208;18.216;2023-02-25T18:35:40;2.03;;;0.73;;
12681;SDS011;6405;59.208;18.216;2023-02-25T18:38:09;4.90;;;1.20;;
12681;SDS011;6405;59.208;18.216;2023-02-25T18:40:40;3.50;;;1.10;;
12681;SDS011;6405;59.208;18.216;2023-02-25T18:43:05;1.37;;;0.90;;
12681;SDS011;6405;59.208;18.216;2023-02-25T18:45:32;2.97;;;1.00;;
12681;SDS011;6405;59.208;18.216;2023-02-25T18:47:58;3.23;;;1.13;;
12681;SDS011;6405;59.208;18.216;2023-02-25T18:50:25;4.70;;;1.50;;
12681;SDS011;6405;59.208;18.216;2023-02-25T18:52:54;4.33;;;1.30;;
12681;SDS011;6405;59.208;18.216;2023-02-25T18:55:21;1.80;;;0.90;;
12681;SDS011;6405;59.208;18.216;2023-02-25T18:57:51;3.47;;;1.30;;
12681;SDS011;6405;59.208;18.216;2023-02-25T19:00:18;2.73;;;1.00;;
12681;SDS011;6405;59.208;18.216;2023-02-25T19:03:06;3.13;;;1.10;;
12681;SDS011;6405;59.208;18.216;2023-02-25T19:05:31;2.10;;;1.03;;
12681;SDS011;6405;59.208;18.216;2023-02-25T19:07:58;5.73;;;1.43;;
12681;SDS011;6405;59.208;18.216;2023-02-25T19:10:28;4.63;;;1.20;;
12681;SDS011;6405;59.208;18.216;2023-02-25T19:13:02;4.43;;;1.10;;